Zhongxiang, China
Current Conditions -  °F | °C
As of 2:00 AM on Tuesday 23 Dec 2014 (Local Time) from ZHHH Reporting Station
Clear Clear  
Wind Chill: 28°   Ceiling: Unl
Heat Index: 34°   Visibility: 4mi
Dew Point: 23°   Wind: 7mph
Humidity: 65%   Direction: 90°E
Pressure: 30.21"   Gusts: NA
Location:  31.17°N, 112.57°E
Report Text: ZHHH 221800Z 09003MPS 7000 NSC 01/M05 Q1023 NOSIG
Loading
Personal Weather Stations






























Interactive Weather Map New forecast layout! Learn more

10-Day Weather Forecast

Advertisements
Track Severe Weather on mobile